Impacts TAF Board
For situational awareness. Not to be used for flight planning purposes.
IDs:

KGRK - Killeen-Ft Hood Rgnl, TX, US

Issued at 1810 UTC 22 Sep 2020
Updated at 1926 UTC 22 Sep 2020
Potential Impact None Slight Moderate High
Time<<23/08Z 23/09Z 23/10Z 23/11Z 23/12Z 23/13Z 23/14Z 23/15Z 23/16Z 23/17Z 23/18Z 23/19Z 23/20Z>>
Type PRVL PRVL PRVL PRVL PRVL PRVL PRVL PRVL PRVL PRVL PRVL PRVL PRVL
VIS >6 >6 >6 >6 >6 >6 >6 >6 >6 >6 >6 4.97 4.97
CIG 5 5 5 5 5 5 5 5 5 5 5 15 15
Cover OVC OVC OVC OVC OVC OVC OVC OVC OVC OVC OVC OVC OVC
FltCat IFR IFR IFR IFR IFR IFR IFR IFR IFR IFR IFR MVFR MVFR
WX -- -- -- -- -- -- -- -- -- -- -- -SHRA -SHRA
WDir 360 360 360 360 360 360 360 360 360 360 360 10 10
WSpd 12 12 12 12 12 12 12 12 12 12 12 12 12
WGst -- -- -- -- -- -- -- -- -- -- -- 18 18
Raw TAF
TAF AMD KGRK 221810Z 2218/2322 02012KT 9999 OVC007 QNH2995INS
  BECMG 2300/2301 02009KT 9999 OVC007 QNH2997INS
  BECMG 2302/2303 36012KT 9999 OVC005 QNH2999INS
  BECMG 2319/2320 01012G18KT 8000 -SHRA OVC015 QNH2994INS TX22/2221Z TN18/2312Z


METAR Board
For situational awareness. Not to be used for flight planning purposes.